createdAt,value
2023-06-30T00:01:00.030Z,11.61
2023-06-30T00:03:27.268Z,11.58
2023-06-30T00:05:54.353Z,11.52
2023-06-30T00:08:21.237Z,11.54
2023-06-30T00:10:48.174Z,11.54
2023-06-30T00:13:15.125Z,11.52
2023-06-30T00:15:42.036Z,11.51
2023-06-30T00:18:09.037Z,11.47
2023-06-30T00:20:35.992Z,11.56
2023-06-30T00:23:03.004Z,11.55
2023-06-30T00:25:29.854Z,11.54
2023-06-30T00:27:56.817Z,11.48
2023-06-30T00:30:23.704Z,11.47
2023-06-30T00:32:50.900Z,11.40
2023-06-30T00:35:19.268Z,11.36
2023-06-30T00:37:46.307Z,11.35
2023-06-30T00:40:15.403Z,11.43
2023-06-30T00:42:42.329Z,11.43
2023-06-30T00:45:09.845Z,11.37
2023-06-30T00:47:36.877Z,11.32
2023-06-30T00:50:04.400Z,11.30
2023-06-30T00:52:31.455Z,11.22
2023-06-30T00:54:58.346Z,11.20
2023-06-30T00:57:25.313Z,11.17
2023-06-30T00:59:52.290Z,11.18
2023-06-30T01:02:24.229Z,11.20
2023-06-30T01:04:59.324Z,11.25
2023-06-30T01:07:40.679Z,11.21
2023-06-30T01:10:13.066Z,11.21
2023-06-30T01:12:39.989Z,11.18
2023-06-30T01:15:10.477Z,11.16
2023-06-30T01:17:42.781Z,11.13
2023-06-30T01:20:12.790Z,11.11
2023-06-30T01:22:52.593Z,11.06
2023-06-30T01:25:28.383Z,11.09
2023-06-30T01:27:57.063Z,11.14
2023-06-30T01:30:25.288Z,11.11
2023-06-30T01:32:56.186Z,11.07
2023-06-30T01:35:24.321Z,11.09
2023-06-30T01:37:53.314Z,11.07
2023-06-30T01:40:21.095Z,11.06
2023-06-30T01:42:48.781Z,11.06
2023-06-30T01:45:17.131Z,11.08
2023-06-30T01:47:44.983Z,11.07
2023-06-30T01:50:12.157Z,11.06
2023-06-30T01:52:39.141Z,11.06
2023-06-30T01:55:06.464Z,11.06
2023-06-30T01:57:33.336Z,11.09
2023-06-30T02:00:00.409Z,11.05
2023-06-30T02:02:27.519Z,11.09
2023-06-30T02:04:54.595Z,11.09
2023-06-30T02:07:22.116Z,11.06
2023-06-30T02:09:49.371Z,11.02
2023-06-30T02:12:17.137Z,11.04
2023-06-30T02:14:44.155Z,10.98
2023-06-30T02:17:12.090Z,10.93
2023-06-30T02:19:38.996Z,10.92
2023-06-30T02:22:06.287Z,10.90
2023-06-30T02:24:33.439Z,10.91
2023-06-30T02:27:01.072Z,10.93
2023-06-30T02:29:32.406Z,10.91
2023-06-30T02:31:59.310Z,10.92
2023-06-30T02:34:26.398Z,10.90
2023-06-30T02:36:54.113Z,10.90
2023-06-30T02:39:21.133Z,10.89
2023-06-30T02:41:48.122Z,10.89
2023-06-30T02:44:15.659Z,10.90
2023-06-30T02:46:42.836Z,10.96
2023-06-30T02:49:09.720Z,10.88
2023-06-30T02:51:36.640Z,10.90
2023-06-30T02:54:04.740Z,10.84
2023-06-30T02:56:33.674Z,10.91
2023-06-30T02:59:01.071Z,10.90
2023-06-30T03:01:27.994Z,10.85
2023-06-30T03:03:55.311Z,10.77
2023-06-30T03:06:26.386Z,10.83
2023-06-30T03:08:53.257Z,10.76
2023-06-30T03:11:23.088Z,10.68
2023-06-30T03:13:50.764Z,10.64
2023-06-30T03:16:17.807Z,10.61
2023-06-30T03:18:44.738Z,10.64
2023-06-30T03:21:11.720Z,10.65
2023-06-30T03:23:38.706Z,10.64
2023-06-30T03:26:05.661Z,10.67
2023-06-30T03:28:32.537Z,10.61
2023-06-30T03:31:00.213Z,10.63
2023-06-30T03:33:27.134Z,10.61
2023-06-30T03:35:54.066Z,10.59
2023-06-30T03:38:21.033Z,10.64
2023-06-30T03:40:48.287Z,10.66
2023-06-30T03:43:15.283Z,10.68
2023-06-30T03:45:43.056Z,10.68
2023-06-30T03:48:10.619Z,10.69
2023-06-30T03:50:37.479Z,10.71
2023-06-30T03:53:05.304Z,10.68
2023-06-30T03:55:32.339Z,10.70
2023-06-30T03:57:59.408Z,10.69
2023-06-30T04:00:26.295Z,10.67
2023-06-30T04:02:53.278Z,10.67
2023-06-30T04:05:20.299Z,10.68
2023-06-30T04:07:47.396Z,10.67
2023-06-30T04:10:14.407Z,10.71
2023-06-30T04:12:42.967Z,10.77
2023-06-30T04:15:11.904Z,10.84
2023-06-30T04:17:38.947Z,10.89
2023-06-30T04:20:11.046Z,10.93
2023-06-30T04:22:38.794Z,11.03
2023-06-30T04:25:06.927Z,11.08
2023-06-30T04:27:34.047Z,11.12
2023-06-30T04:30:01.337Z,11.18
2023-06-30T04:32:28.384Z,11.26
2023-06-30T04:34:55.275Z,11.33
2023-06-30T04:37:22.350Z,11.40
2023-06-30T04:39:49.363Z,11.45
2023-06-30T04:42:16.410Z,11.50
2023-06-30T04:44:43.361Z,11.61
2023-06-30T04:47:10.325Z,11.67
2023-06-30T04:49:37.122Z,11.77
2023-06-30T04:52:04.304Z,11.88
2023-06-30T04:54:32.042Z,11.98
2023-06-30T04:56:59.145Z,12.05
2023-06-30T04:59:26.126Z,12.17
2023-06-30T05:01:53.039Z,12.21
2023-06-30T05:04:20.102Z,12.30
2023-06-30T05:06:47.081Z,12.35
2023-06-30T05:09:14.012Z,12.46
2023-06-30T05:11:40.955Z,12.55
2023-06-30T05:14:07.802Z,12.65
2023-06-30T05:16:35.115Z,12.74
2023-06-30T05:19:02.250Z,12.85
2023-06-30T05:21:29.320Z,12.97
2023-06-30T05:23:56.979Z,13.12
2023-06-30T05:26:23.882Z,13.26
2023-06-30T05:29:03.420Z,13.39
2023-06-30T05:31:31.056Z,13.51
2023-06-30T05:33:58.264Z,13.70
2023-06-30T05:36:25.314Z,13.83
2023-06-30T05:38:52.285Z,13.97
2023-06-30T05:41:19.282Z,14.14
2023-06-30T05:43:46.239Z,14.31
2023-06-30T05:46:13.271Z,14.44
2023-06-30T05:48:40.336Z,14.53
2023-06-30T05:51:07.183Z,14.63
2023-06-30T05:53:34.241Z,14.72
2023-06-30T05:56:01.136Z,14.82
2023-06-30T05:58:28.089Z,14.93
2023-06-30T06:00:55.280Z,15.02
2023-06-30T06:03:22.638Z,15.15
2023-06-30T06:05:50.229Z,15.24
2023-06-30T06:08:17.496Z,15.33
2023-06-30T06:10:46.768Z,15.48
2023-06-30T06:13:13.622Z,15.76
2023-06-30T06:15:40.674Z,15.95
2023-06-30T06:18:07.685Z,16.06
2023-06-30T06:20:34.680Z,16.07
2023-06-30T06:23:01.598Z,16.08
2023-06-30T06:25:28.581Z,16.07
2023-06-30T06:27:55.491Z,16.08
2023-06-30T06:30:22.442Z,16.09
2023-06-30T06:32:49.488Z,16.07
2023-06-30T06:35:16.399Z,16.11
2023-06-30T06:37:43.451Z,16.18
2023-06-30T06:40:10.908Z,16.25
2023-06-30T06:42:37.925Z,16.33
2023-06-30T06:45:05.291Z,16.34
2023-06-30T06:48:09.885Z,16.40
2023-06-30T06:50:36.772Z,16.46
2023-06-30T06:53:03.845Z,16.50
2023-06-30T06:55:30.924Z,16.51
2023-06-30T06:57:57.984Z,16.51
2023-06-30T07:00:24.893Z,16.62
2023-06-30T07:02:53.065Z,16.68
2023-06-30T07:05:20.010Z,16.77
2023-06-30T07:07:47.267Z,16.83
2023-06-30T07:10:14.195Z,16.94
2023-06-30T07:12:41.145Z,16.97
2023-06-30T07:15:08.749Z,17.06
2023-06-30T07:17:35.955Z,17.07
2023-06-30T07:20:03.329Z,17.19
2023-06-30T07:22:30.301Z,17.34
2023-06-30T07:24:57.320Z,17.27
2023-06-30T07:27:24.224Z,17.39
2023-06-30T07:29:52.031Z,17.52
2023-06-30T07:32:19.000Z,17.67
2023-06-30T07:34:46.033Z,17.70
2023-06-30T07:37:12.980Z,17.65
2023-06-30T07:39:39.959Z,17.73
2023-06-30T07:42:07.149Z,17.93
2023-06-30T07:44:34.956Z,17.99
2023-06-30T07:47:01.930Z,18.02
2023-06-30T07:49:28.917Z,18.16
2023-06-30T07:51:56.636Z,18.10
2023-06-30T07:54:23.587Z,18.13
2023-06-30T07:56:50.827Z,18.16
2023-06-30T07:59:17.897Z,18.14
2023-06-30T08:01:45.323Z,17.95
2023-06-30T08:04:12.672Z,18.00
2023-06-30T08:06:39.817Z,18.14
2023-06-30T08:09:06.712Z,18.40
2023-06-30T08:11:33.801Z,18.43
2023-06-30T08:14:03.362Z,18.42
2023-06-30T08:16:30.355Z,18.38
2023-06-30T08:18:57.420Z,18.29
2023-06-30T08:21:25.534Z,18.31
2023-06-30T08:23:52.885Z,18.26
2023-06-30T08:26:19.915Z,18.39
2023-06-30T08:28:46.911Z,18.50
2023-06-30T08:31:14.018Z,18.66
2023-06-30T08:33:41.453Z,18.72
2023-06-30T08:36:08.973Z,18.76
2023-06-30T08:38:35.925Z,18.59
2023-06-30T08:41:04.464Z,19.04
2023-06-30T08:43:32.737Z,19.11
2023-06-30T08:46:02.913Z,19.27
2023-06-30T08:48:31.709Z,19.36
2023-06-30T08:50:59.804Z,19.62
2023-06-30T08:53:29.021Z,19.74
2023-06-30T08:55:58.461Z,19.81
2023-06-30T08:58:27.563Z,20.13
2023-06-30T09:00:55.632Z,19.90
2023-06-30T09:03:23.840Z,19.85
2023-06-30T09:05:56.944Z,20.01
2023-06-30T09:08:25.228Z,20.08
2023-06-30T09:10:52.839Z,20.03
2023-06-30T09:13:21.788Z,20.03
2023-06-30T09:15:49.765Z,20.12
2023-06-30T09:18:17.220Z,20.37
2023-06-30T09:20:44.179Z,19.82
2023-06-30T09:23:11.156Z,19.90
2023-06-30T09:25:38.560Z,19.69
2023-06-30T09:28:12.090Z,19.94
2023-06-30T09:31:00.252Z,20.19
2023-06-30T09:33:29.965Z,20.68
2023-06-30T09:35:57.798Z,20.82
2023-06-30T09:38:25.841Z,20.56
2023-06-30T09:40:53.407Z,20.24
2023-06-30T09:43:21.906Z,20.15
2023-06-30T09:46:01.226Z,19.89
2023-06-30T09:48:36.576Z,20.03
2023-06-30T09:51:03.647Z,20.13
2023-06-30T09:53:40.262Z,20.18
2023-06-30T09:56:08.852Z,19.98
2023-06-30T09:58:40.829Z,20.33
2023-06-30T10:01:08.723Z,21.14
2023-06-30T10:03:35.865Z,21.81
2023-06-30T10:06:03.193Z,22.22
2023-06-30T10:08:31.285Z,22.15
2023-06-30T10:10:58.443Z,22.49
2023-06-30T10:13:25.676Z,22.27
2023-06-30T10:15:52.799Z,21.52
2023-06-30T10:18:20.066Z,21.60
2023-06-30T10:20:49.425Z,22.10
2023-06-30T10:23:20.609Z,22.99
2023-06-30T10:25:48.390Z,22.78
2023-06-30T10:28:15.922Z,22.18
2023-06-30T10:30:43.391Z,21.80
2023-06-30T10:33:10.444Z,21.71
2023-06-30T10:35:38.247Z,21.07
2023-06-30T10:38:05.355Z,20.61
2023-06-30T10:40:32.474Z,20.62
2023-06-30T10:42:59.839Z,21.39
2023-06-30T10:45:32.047Z,22.27
2023-06-30T10:47:59.230Z,22.95
2023-06-30T10:50:26.328Z,22.09
2023-06-30T10:52:54.809Z,21.42
2023-06-30T10:55:23.782Z,21.42
2023-06-30T10:57:52.698Z,22.48
2023-06-30T11:00:22.962Z,23.75
2023-06-30T11:02:59.623Z,23.49
2023-06-30T11:05:34.473Z,22.98
2023-06-30T11:08:08.699Z,21.86
2023-06-30T11:10:46.203Z,21.35
2023-06-30T11:13:13.449Z,21.13
2023-06-30T11:15:43.838Z,20.89
2023-06-30T11:18:22.361Z,20.46
2023-06-30T11:21:00.108Z,20.36
2023-06-30T11:23:39.239Z,20.16
2023-06-30T11:26:17.291Z,20.03
2023-06-30T11:28:51.215Z,19.96
2023-06-30T11:31:18.435Z,19.77
2023-06-30T11:33:46.216Z,19.73
2023-06-30T11:36:14.213Z,19.84
2023-06-30T11:38:47.785Z,20.03
2023-06-30T11:41:22.939Z,20.14
2023-06-30T11:43:57.278Z,20.41
2023-06-30T11:46:24.716Z,20.42
2023-06-30T11:48:51.770Z,20.39
2023-06-30T11:51:18.934Z,20.35
2023-06-30T11:53:49.689Z,20.58
2023-06-30T11:56:20.022Z,21.94
2023-06-30T11:58:51.552Z,23.13
2023-06-30T12:01:21.514Z,24.03
2023-06-30T12:04:19.733Z,24.78
2023-06-30T12:06:47.215Z,25.57
2023-06-30T12:09:14.311Z,25.10
2023-06-30T12:11:48.530Z,25.12
2023-06-30T12:14:16.843Z,25.33
2023-06-30T12:16:45.204Z,26.12
2023-06-30T12:19:13.889Z,25.07
2023-06-30T12:22:01.147Z,23.67
2023-06-30T12:24:31.929Z,23.04
2023-06-30T12:26:59.048Z,24.08
2023-06-30T12:29:32.865Z,23.84
2023-06-30T12:32:00.294Z,23.24
2023-06-30T12:34:37.571Z,24.01
2023-06-30T12:37:04.825Z,23.63
2023-06-30T12:39:31.942Z,23.74
2023-06-30T12:41:59.180Z,23.41
2023-06-30T12:44:26.543Z,23.77
2023-06-30T12:47:04.866Z,25.09
2023-06-30T12:49:32.029Z,25.00
2023-06-30T12:52:01.852Z,23.92
2023-06-30T12:54:30.853Z,22.65
2023-06-30T12:56:57.952Z,22.61
2023-06-30T12:59:25.048Z,22.32
2023-06-30T13:01:52.168Z,21.98
2023-06-30T13:04:19.269Z,22.20
2023-06-30T13:06:46.347Z,21.82
2023-06-30T13:09:13.397Z,21.94
2023-06-30T13:11:40.582Z,21.99
2023-06-30T13:14:08.084Z,23.26
2023-06-30T13:16:35.166Z,23.96
2023-06-30T13:19:02.627Z,23.61
2023-06-30T13:21:31.045Z,23.22
2023-06-30T13:23:57.977Z,22.95
2023-06-30T13:26:25.085Z,22.46
2023-06-30T13:28:52.016Z,23.39
2023-06-30T13:31:19.093Z,23.39
2023-06-30T13:33:46.069Z,24.38
2023-06-30T13:36:14.187Z,24.62
2023-06-30T13:38:43.558Z,23.85
2023-06-30T13:41:11.078Z,23.94
2023-06-30T13:43:38.187Z,24.34
2023-06-30T13:46:05.986Z,24.11
2023-06-30T13:48:33.478Z,24.58
2023-06-30T13:51:00.489Z,24.58
2023-06-30T13:53:27.489Z,24.67
2023-06-30T13:55:54.426Z,24.71
2023-06-30T13:58:21.331Z,24.91
2023-06-30T14:00:48.421Z,25.22
2023-06-30T14:03:15.885Z,25.53
2023-06-30T14:05:43.261Z,25.64
2023-06-30T14:08:10.343Z,25.45
2023-06-30T14:10:37.451Z,25.26
2023-06-30T14:13:04.645Z,25.26
2023-06-30T14:15:32.473Z,25.08
2023-06-30T14:17:59.752Z,25.00
2023-06-30T14:20:26.605Z,24.86
2023-06-30T14:22:53.896Z,25.15
2023-06-30T14:25:22.990Z,25.08
2023-06-30T14:27:51.162Z,25.13
2023-06-30T14:30:18.584Z,25.38
2023-06-30T14:32:45.928Z,25.09
2023-06-30T14:35:14.318Z,25.25
2023-06-30T14:37:41.335Z,24.76
2023-06-30T14:40:08.872Z,24.86
2023-06-30T14:42:35.861Z,24.61
2023-06-30T14:45:03.134Z,24.64
2023-06-30T14:47:31.018Z,23.73
2023-06-30T14:49:58.908Z,22.65
2023-06-30T14:52:26.052Z,22.63
2023-06-30T14:54:53.048Z,23.12
2023-06-30T14:57:20.085Z,23.15
2023-06-30T14:59:47.208Z,22.66
2023-06-30T15:02:15.605Z,21.97
2023-06-30T15:04:42.704Z,21.74
2023-06-30T15:07:09.836Z,21.11
2023-06-30T15:09:36.773Z,20.98
2023-06-30T15:12:04.332Z,20.86
2023-06-30T15:14:31.280Z,21.00
2023-06-30T15:16:58.175Z,20.79
2023-06-30T15:19:25.085Z,20.68
2023-06-30T15:21:52.519Z,20.67
2023-06-30T15:24:19.450Z,20.68
2023-06-30T15:26:46.302Z,20.75
2023-06-30T15:29:13.255Z,20.89
2023-06-30T15:31:41.042Z,21.26
2023-06-30T15:34:08.421Z,21.14
2023-06-30T15:36:35.363Z,21.20
2023-06-30T15:39:02.417Z,21.14
2023-06-30T15:41:29.274Z,20.75
2023-06-30T15:43:56.434Z,20.86
2023-06-30T15:46:23.408Z,20.83
2023-06-30T15:48:50.422Z,20.83
2023-06-30T15:51:17.366Z,20.82
2023-06-30T15:53:44.433Z,20.60
2023-06-30T15:56:11.719Z,20.54
2023-06-30T15:58:38.700Z,20.20
2023-06-30T16:01:05.727Z,20.15
2023-06-30T16:03:32.670Z,20.17
2023-06-30T16:05:59.909Z,20.16
2023-06-30T16:08:26.782Z,19.97
2023-06-30T16:10:53.774Z,19.85
2023-06-30T16:13:20.843Z,19.80
2023-06-30T16:15:48.209Z,19.64
2023-06-30T16:18:15.448Z,19.46
2023-06-30T16:20:42.522Z,19.39
2023-06-30T16:23:09.412Z,19.43
2023-06-30T16:25:36.362Z,19.42
2023-06-30T16:28:03.487Z,19.41
2023-06-30T16:30:33.706Z,19.38
2023-06-30T16:33:01.610Z,19.26
2023-06-30T16:35:29.344Z,19.24
2023-06-30T16:37:58.476Z,19.08
2023-06-30T16:40:25.596Z,19.02
2023-06-30T16:42:52.635Z,18.96
2023-06-30T16:45:19.947Z,18.88
2023-06-30T16:47:47.725Z,18.85
2023-06-30T16:50:17.159Z,18.89
2023-06-30T16:52:44.330Z,18.95
2023-06-30T16:55:11.738Z,18.92
2023-06-30T16:57:39.762Z,18.86
2023-06-30T17:00:09.706Z,18.83
2023-06-30T17:02:38.475Z,18.79
2023-06-30T17:05:06.818Z,18.88
2023-06-30T17:07:34.278Z,18.91
2023-06-30T17:10:01.278Z,18.79
2023-06-30T17:12:28.541Z,18.70
2023-06-30T17:14:55.588Z,18.57
2023-06-30T17:17:25.702Z,18.59
2023-06-30T17:19:53.397Z,18.54
2023-06-30T17:22:20.305Z,18.48
2023-06-30T17:24:47.329Z,18.45
2023-06-30T17:27:14.269Z,18.38
2023-06-30T17:29:41.465Z,18.36
2023-06-30T17:32:09.022Z,18.38
2023-06-30T17:34:35.897Z,18.38
2023-06-30T17:37:11.920Z,18.39
2023-06-30T17:39:40.686Z,18.46
2023-06-30T17:42:08.083Z,18.54
2023-06-30T17:44:35.113Z,18.64
2023-06-30T17:47:02.126Z,18.67
2023-06-30T17:49:31.692Z,18.65
2023-06-30T17:52:00.369Z,18.59
2023-06-30T17:54:28.513Z,18.51
2023-06-30T17:56:56.000Z,18.45
2023-06-30T17:59:23.213Z,18.48
2023-06-30T18:01:50.960Z,18.53
2023-06-30T18:04:18.209Z,18.45
2023-06-30T18:07:13.345Z,18.37
2023-06-30T18:09:43.587Z,18.35
2023-06-30T18:12:11.507Z,18.33
2023-06-30T18:14:39.920Z,18.24
2023-06-30T18:17:07.280Z,18.23
2023-06-30T18:19:34.317Z,18.26
2023-06-30T18:22:01.397Z,18.27
2023-06-30T18:24:28.465Z,18.15
2023-06-30T18:26:55.443Z,18.01
2023-06-30T18:29:24.083Z,17.95
2023-06-30T18:31:52.122Z,17.93
2023-06-30T18:34:20.422Z,17.87
2023-06-30T18:36:47.782Z,17.92
2023-06-30T18:39:14.938Z,17.83
2023-06-30T18:41:41.885Z,17.85
2023-06-30T18:44:08.847Z,17.83
2023-06-30T18:46:36.076Z,17.86
2023-06-30T18:49:05.351Z,17.78
2023-06-30T18:51:33.274Z,17.73
2023-06-30T18:54:00.265Z,17.68
2023-06-30T18:56:30.058Z,17.65
2023-06-30T18:59:01.674Z,17.64
2023-06-30T19:01:29.548Z,17.64
2023-06-30T19:03:57.163Z,17.63
2023-06-30T19:06:25.575Z,17.63
2023-06-30T19:08:54.602Z,17.60
2023-06-30T19:11:22.895Z,17.59
2023-06-30T19:13:50.240Z,17.55
2023-06-30T19:16:18.171Z,17.53
2023-06-30T19:18:45.592Z,17.54
2023-06-30T19:21:12.574Z,17.53
2023-06-30T19:23:41.939Z,17.51
2023-06-30T19:26:09.625Z,17.50
2023-06-30T19:28:37.405Z,17.47
2023-06-30T19:31:04.369Z,17.47
2023-06-30T19:33:35.192Z,17.58
2023-06-30T19:36:02.387Z,17.54
2023-06-30T19:38:29.621Z,17.53
2023-06-30T19:40:56.723Z,17.51
2023-06-30T19:43:23.865Z,17.52
2023-06-30T19:45:51.244Z,17.52
2023-06-30T19:48:20.118Z,17.51
2023-06-30T19:50:47.084Z,17.50
2023-06-30T19:53:14.290Z,17.48
2023-06-30T19:55:41.180Z,17.50
2023-06-30T19:58:10.694Z,17.50
2023-06-30T20:00:38.647Z,17.51
2023-06-30T20:03:05.993Z,17.51
2023-06-30T20:05:33.039Z,17.47
2023-06-30T20:07:59.916Z,17.45
2023-06-30T20:10:26.923Z,17.46
2023-06-30T20:12:54.332Z,17.46
2023-06-30T20:15:21.658Z,17.43
2023-06-30T20:17:48.979Z,17.45
2023-06-30T20:20:16.208Z,17.46
2023-06-30T20:22:43.209Z,17.44
2023-06-30T20:25:11.202Z,17.47
2023-06-30T20:27:39.683Z,17.49
2023-06-30T20:30:09.062Z,17.49
2023-06-30T20:32:36.267Z,17.46
2023-06-30T20:35:04.300Z,17.46
2023-06-30T20:37:31.394Z,17.56
2023-06-30T20:39:58.300Z,17.55
2023-06-30T20:42:25.207Z,17.56
2023-06-30T20:44:52.174Z,17.52
2023-06-30T20:47:19.233Z,17.54
2023-06-30T20:49:46.452Z,17.55
2023-06-30T20:52:14.621Z,17.57
2023-06-30T20:54:41.889Z,17.55
2023-06-30T20:57:08.958Z,17.55
2023-06-30T20:59:35.846Z,17.56
2023-06-30T21:02:03.321Z,17.54
2023-06-30T21:04:30.451Z,17.52
2023-06-30T21:06:57.490Z,17.47
2023-06-30T21:09:24.442Z,17.38
2023-06-30T21:11:51.546Z,17.25
2023-06-30T21:14:21.533Z,17.14
2023-06-30T21:16:49.320Z,16.99
2023-06-30T21:19:16.898Z,16.87
2023-06-30T21:21:44.106Z,16.73
2023-06-30T21:24:11.251Z,16.65
2023-06-30T21:26:39.003Z,16.59
2023-06-30T21:29:06.052Z,16.59
2023-06-30T21:31:33.071Z,16.61
2023-06-30T21:34:00.284Z,16.63
2023-06-30T21:36:27.375Z,16.67
2023-06-30T21:38:54.503Z,16.71
2023-06-30T21:41:21.392Z,16.71
2023-06-30T21:43:48.437Z,16.77
2023-06-30T21:46:16.500Z,16.84
2023-06-30T21:48:43.727Z,16.90
2023-06-30T21:51:10.751Z,16.98
2023-06-30T21:53:37.957Z,17.08
2023-06-30T21:56:05.218Z,17.12
2023-06-30T21:58:32.287Z,17.17
2023-06-30T22:00:59.416Z,17.20
2023-06-30T22:03:27.024Z,17.20
2023-06-30T22:05:54.096Z,17.20
2023-06-30T22:08:21.287Z,17.19
2023-06-30T22:10:48.500Z,17.19
2023-06-30T22:13:15.739Z,17.19
2023-06-30T22:15:42.737Z,17.25
2023-06-30T22:18:10.178Z,17.24
2023-06-30T22:20:37.474Z,17.22
2023-06-30T22:23:04.993Z,17.21
2023-06-30T22:25:32.067Z,17.18
2023-06-30T22:27:59.132Z,17.21
2023-06-30T22:30:27.336Z,17.18
2023-06-30T22:32:54.523Z,17.09
2023-06-30T22:35:21.881Z,17.06
2023-06-30T22:37:48.824Z,16.91
2023-06-30T22:40:17.617Z,16.89
2023-06-30T22:42:44.642Z,16.86
2023-06-30T22:45:12.734Z,16.90
2023-06-30T22:47:39.974Z,16.86
2023-06-30T22:50:09.699Z,16.86
2023-06-30T22:52:37.645Z,16.91
2023-06-30T22:55:04.881Z,16.97
2023-06-30T22:57:31.736Z,16.93
2023-06-30T22:59:58.593Z,16.90
2023-06-30T23:02:25.556Z,16.81
2023-06-30T23:04:52.587Z,16.71
2023-06-30T23:07:20.035Z,16.62
2023-06-30T23:09:47.058Z,16.64
2023-06-30T23:12:13.926Z,16.59
2023-06-30T23:14:41.129Z,16.60
2023-06-30T23:17:16.273Z,16.59
2023-06-30T23:19:49.391Z,16.60
2023-06-30T23:22:17.546Z,16.65
2023-06-30T23:24:51.277Z,16.72
2023-06-30T23:27:19.357Z,16.77
2023-06-30T23:29:50.363Z,16.77
2023-06-30T23:32:21.320Z,16.77
2023-06-30T23:34:49.064Z,16.76
2023-06-30T23:37:20.597Z,16.76
2023-06-30T23:39:49.574Z,16.76
2023-06-30T23:42:16.462Z,16.73
2023-06-30T23:44:43.305Z,16.72
2023-06-30T23:47:15.274Z,16.73
2023-06-30T23:49:42.690Z,16.75
2023-06-30T23:52:10.315Z,16.72
2023-06-30T23:54:37.315Z,16.73
2023-06-30T23:57:05.043Z,16.70
2023-06-30T23:59:31.955Z,16.66
